sensor_id;sensor_type;location;lat;lon;timestamp;P1;durP1;ratioP1;P2;durP2;ratioP2
35757;SDS011;21879;50.110;18.900;2023-09-19T00:00:57;19.70;;;15.90;;
35757;SDS011;21879;50.110;18.900;2023-09-19T00:11:24;20.20;;;18.00;;
35757;SDS011;21879;50.110;18.900;2023-09-19T00:21:54;19.10;;;16.30;;
35757;SDS011;21879;50.110;18.900;2023-09-19T00:32:22;19.60;;;15.50;;
35757;SDS011;21879;50.110;18.900;2023-09-19T00:42:56;20.00;;;15.80;;
35757;SDS011;21879;50.110;18.900;2023-09-19T00:53:25;19.80;;;15.80;;
35757;SDS011;21879;50.110;18.900;2023-09-19T01:03:53;17.10;;;15.40;;
35757;SDS011;21879;50.110;18.900;2023-09-19T01:14:24;16.20;;;14.10;;
35757;SDS011;21879;50.110;18.900;2023-09-19T01:25:13;18.80;;;16.30;;
35757;SDS011;21879;50.110;18.900;2023-09-19T01:36:08;17.70;;;15.60;;
35757;SDS011;21879;50.110;18.900;2023-09-19T01:46:38;17.50;;;14.70;;
35757;SDS011;21879;50.110;18.900;2023-09-19T01:57:09;16.30;;;14.50;;
35757;SDS011;21879;50.110;18.900;2023-09-19T02:07:43;17.30;;;15.00;;
35757;SDS011;21879;50.110;18.900;2023-09-19T02:18:12;18.90;;;16.10;;
35757;SDS011;21879;50.110;18.900;2023-09-19T02:28:40;19.00;;;16.20;;
35757;SDS011;21879;50.110;18.900;2023-09-19T02:39:11;18.10;;;16.20;;
35757;SDS011;21879;50.110;18.900;2023-09-19T02:49:39;18.40;;;16.50;;
35757;SDS011;21879;50.110;18.900;2023-09-19T03:00:08;23.30;;;16.50;;
35757;SDS011;21879;50.110;18.900;2023-09-19T03:10:37;19.00;;;15.90;;
35757;SDS011;21879;50.110;18.900;2023-09-19T03:21:06;19.60;;;16.30;;
35757;SDS011;21879;50.110;18.900;2023-09-19T03:31:35;19.90;;;16.20;;
35757;SDS011;21879;50.110;18.900;2023-09-19T03:42:04;18.10;;;16.20;;
35757;SDS011;21879;50.110;18.900;2023-09-19T03:52:32;19.60;;;16.40;;
35757;SDS011;21879;50.110;18.900;2023-09-19T04:03:01;22.00;;;16.70;;
35757;SDS011;21879;50.110;18.900;2023-09-19T04:13:31;20.60;;;17.60;;
35757;SDS011;21879;50.110;18.900;2023-09-19T04:23:59;19.70;;;16.60;;
35757;SDS011;21879;50.110;18.900;2023-09-19T04:34:27;22.00;;;16.40;;
35757;SDS011;21879;50.110;18.900;2023-09-19T04:44:55;19.30;;;15.10;;
35757;SDS011;21879;50.110;18.900;2023-09-19T04:55:24;16.40;;;14.00;;
35757;SDS011;21879;50.110;18.900;2023-09-19T05:05:52;20.60;;;17.50;;
35757;SDS011;21879;50.110;18.900;2023-09-19T05:16:20;19.60;;;16.00;;
35757;SDS011;21879;50.110;18.900;2023-09-19T05:26:48;20.50;;;16.40;;
35757;SDS011;21879;50.110;18.900;2023-09-19T05:37:16;18.20;;;15.20;;
35757;SDS011;21879;50.110;18.900;2023-09-19T05:47:44;20.60;;;15.20;;
35757;SDS011;21879;50.110;18.900;2023-09-19T05:58:13;17.50;;;12.70;;
35757;SDS011;21879;50.110;18.900;2023-09-19T06:08:42;15.90;;;11.50;;
35757;SDS011;21879;50.110;18.900;2023-09-19T06:19:10;16.40;;;12.40;;
35757;SDS011;21879;50.110;18.900;2023-09-19T06:29:38;12.70;;;10.70;;
35757;SDS011;21879;50.110;18.900;2023-09-19T06:40:07;12.70;;;8.60;;
35757;SDS011;21879;50.110;18.900;2023-09-19T06:50:38;10.60;;;6.80;;
35757;SDS011;21879;50.110;18.900;2023-09-19T07:01:08;9.70;;;6.70;;
35757;SDS011;21879;50.110;18.900;2023-09-19T07:11:39;7.00;;;4.60;;
35757;SDS011;21879;50.110;18.900;2023-09-19T07:22:07;6.40;;;4.20;;
35757;SDS011;21879;50.110;18.900;2023-09-19T07:32:35;5.80;;;3.90;;
35757;SDS011;21879;50.110;18.900;2023-09-19T07:43:03;6.50;;;5.00;;
35757;SDS011;21879;50.110;18.900;2023-09-19T07:53:31;5.30;;;4.10;;
35757;SDS011;21879;50.110;18.900;2023-09-19T08:04:00;5.30;;;3.60;;
35757;SDS011;21879;50.110;18.900;2023-09-19T08:14:28;4.90;;;3.50;;
35757;SDS011;21879;50.110;18.900;2023-09-19T08:24:56;8.30;;;4.30;;
35757;SDS011;21879;50.110;18.900;2023-09-19T08:35:24;4.10;;;3.30;;
35757;SDS011;21879;50.110;18.900;2023-09-19T08:45:55;6.00;;;4.00;;
35757;SDS011;21879;50.110;18.900;2023-09-19T08:56:34;5.70;;;3.90;;
35757;SDS011;21879;50.110;18.900;2023-09-19T09:07:04;4.60;;;3.20;;
35757;SDS011;21879;50.110;18.900;2023-09-19T09:17:32;8.20;;;3.80;;
35757;SDS011;21879;50.110;18.900;2023-09-19T09:28:00;5.70;;;4.00;;
35757;SDS011;21879;50.110;18.900;2023-09-19T09:38:28;5.60;;;4.10;;
35757;SDS011;21879;50.110;18.900;2023-09-19T09:49:10;7.10;;;4.00;;
35757;SDS011;21879;50.110;18.900;2023-09-19T10:10:41;6.70;;;4.70;;
35757;SDS011;21879;50.110;18.900;2023-09-19T10:21:19;7.80;;;3.70;;
35757;SDS011;21879;50.110;18.900;2023-09-19T10:31:48;7.30;;;4.30;;
35757;SDS011;21879;50.110;18.900;2023-09-19T10:42:19;7.30;;;5.80;;
35757;SDS011;21879;50.110;18.900;2023-09-19T10:52:50;7.20;;;4.30;;
35757;SDS011;21879;50.110;18.900;2023-09-19T11:03:23;7.20;;;4.70;;
35757;SDS011;21879;50.110;18.900;2023-09-19T11:24:54;7.50;;;5.40;;
35757;SDS011;21879;50.110;18.900;2023-09-19T11:46:27;8.00;;;5.40;;
35757;SDS011;21879;50.110;18.900;2023-09-19T11:56:56;6.00;;;3.60;;
35757;SDS011;21879;50.110;18.900;2023-09-19T12:07:24;6.60;;;4.50;;
35757;SDS011;21879;50.110;18.900;2023-09-19T12:17:52;7.20;;;4.60;;
35757;SDS011;21879;50.110;18.900;2023-09-19T12:28:20;4.40;;;3.50;;
35757;SDS011;21879;50.110;18.900;2023-09-19T12:38:51;6.40;;;4.50;;
35757;SDS011;21879;50.110;18.900;2023-09-19T12:49:20;8.60;;;4.60;;
35757;SDS011;21879;50.110;18.900;2023-09-19T12:59:48;5.40;;;3.90;;
35757;SDS011;21879;50.110;18.900;2023-09-19T13:10:20;5.40;;;3.60;;
35757;SDS011;21879;50.110;18.900;2023-09-19T13:31:35;4.30;;;3.50;;
35757;SDS011;21879;50.110;18.900;2023-09-19T13:42:06;7.10;;;4.00;;
35757;SDS011;21879;50.110;18.900;2023-09-19T13:52:36;5.20;;;3.70;;
35757;SDS011;21879;50.110;18.900;2023-09-19T14:03:04;5.00;;;3.70;;
35757;SDS011;21879;50.110;18.900;2023-09-19T14:13:32;4.90;;;3.50;;
35757;SDS011;21879;50.110;18.900;2023-09-19T14:24:00;4.00;;;2.80;;
35757;SDS011;21879;50.110;18.900;2023-09-19T14:34:29;5.70;;;2.60;;
35757;SDS011;21879;50.110;18.900;2023-09-19T14:44:58;6.60;;;3.40;;
35757;SDS011;21879;50.110;18.900;2023-09-19T14:55:25;5.00;;;3.90;;
35757;SDS011;21879;50.110;18.900;2023-09-19T15:05:59;6.00;;;4.30;;
35757;SDS011;21879;50.110;18.900;2023-09-19T15:16:27;7.70;;;4.10;;
35757;SDS011;21879;50.110;18.900;2023-09-19T15:26:55;5.10;;;4.50;;
35757;SDS011;21879;50.110;18.900;2023-09-19T15:37:23;5.10;;;4.20;;
35757;SDS011;21879;50.110;18.900;2023-09-19T15:47:51;11.20;;;5.40;;
35757;SDS011;21879;50.110;18.900;2023-09-19T15:58:19;5.90;;;4.60;;
35757;SDS011;21879;50.110;18.900;2023-09-19T16:08:47;7.70;;;3.60;;
35757;SDS011;21879;50.110;18.900;2023-09-19T16:19:16;7.90;;;4.00;;
35757;SDS011;21879;50.110;18.900;2023-09-19T16:29:44;6.30;;;3.00;;
35757;SDS011;21879;50.110;18.900;2023-09-19T16:40:13;4.80;;;4.20;;
35757;SDS011;21879;50.110;18.900;2023-09-19T16:50:40;6.20;;;4.00;;
35757;SDS011;21879;50.110;18.900;2023-09-19T17:01:08;6.20;;;4.50;;
35757;SDS011;21879;50.110;18.900;2023-09-19T17:11:37;4.60;;;3.00;;
35757;SDS011;21879;50.110;18.900;2023-09-19T17:22:05;5.60;;;3.70;;
35757;SDS011;21879;50.110;18.900;2023-09-19T17:32:34;6.30;;;4.00;;
35757;SDS011;21879;50.110;18.900;2023-09-19T17:43:02;8.10;;;4.40;;
35757;SDS011;21879;50.110;18.900;2023-09-19T17:53:30;7.40;;;3.40;;
35757;SDS011;21879;50.110;18.900;2023-09-19T18:04:00;4.40;;;2.50;;
35757;SDS011;21879;50.110;18.900;2023-09-19T18:14:29;6.60;;;3.80;;
35757;SDS011;21879;50.110;18.900;2023-09-19T18:24:57;5.20;;;3.10;;
35757;SDS011;21879;50.110;18.900;2023-09-19T18:35:26;4.10;;;3.10;;
35757;SDS011;21879;50.110;18.900;2023-09-19T18:45:56;3.90;;;2.80;;
35757;SDS011;21879;50.110;18.900;2023-09-19T18:56:23;3.90;;;2.30;;
35757;SDS011;21879;50.110;18.900;2023-09-19T19:06:52;3.10;;;2.10;;
35757;SDS011;21879;50.110;18.900;2023-09-19T19:17:20;3.40;;;2.10;;
35757;SDS011;21879;50.110;18.900;2023-09-19T19:27:49;4.00;;;2.60;;
35757;SDS011;21879;50.110;18.900;2023-09-19T19:38:18;5.00;;;3.40;;
35757;SDS011;21879;50.110;18.900;2023-09-19T19:48:48;5.00;;;3.70;;
35757;SDS011;21879;50.110;18.900;2023-09-19T19:59:17;5.60;;;4.10;;
35757;SDS011;21879;50.110;18.900;2023-09-19T20:09:46;4.40;;;3.20;;
35757;SDS011;21879;50.110;18.900;2023-09-19T20:20:14;5.30;;;3.70;;
35757;SDS011;21879;50.110;18.900;2023-09-19T20:30:43;5.40;;;4.20;;
35757;SDS011;21879;50.110;18.900;2023-09-19T20:41:12;5.70;;;4.00;;
35757;SDS011;21879;50.110;18.900;2023-09-19T20:51:40;4.10;;;3.20;;
35757;SDS011;21879;50.110;18.900;2023-09-19T21:02:09;4.70;;;3.70;;
35757;SDS011;21879;50.110;18.900;2023-09-19T21:12:37;4.00;;;3.00;;
35757;SDS011;21879;50.110;18.900;2023-09-19T21:23:06;4.80;;;3.20;;
35757;SDS011;21879;50.110;18.900;2023-09-19T21:33:39;6.20;;;4.00;;
35757;SDS011;21879;50.110;18.900;2023-09-19T21:44:11;6.10;;;3.70;;
35757;SDS011;21879;50.110;18.900;2023-09-19T21:54:39;7.90;;;5.30;;
35757;SDS011;21879;50.110;18.900;2023-09-19T22:05:08;9.90;;;6.40;;
35757;SDS011;21879;50.110;18.900;2023-09-19T22:15:37;8.90;;;6.80;;
35757;SDS011;21879;50.110;18.900;2023-09-19T22:26:07;9.10;;;6.80;;
35757;SDS011;21879;50.110;18.900;2023-09-19T22:36:42;10.10;;;7.50;;
35757;SDS011;21879;50.110;18.900;2023-09-19T22:47:13;7.20;;;5.60;;
35757;SDS011;21879;50.110;18.900;2023-09-19T22:57:43;5.60;;;4.30;;
35757;SDS011;21879;50.110;18.900;2023-09-19T23:08:11;7.00;;;5.00;;
35757;SDS011;21879;50.110;18.900;2023-09-19T23:18:40;7.80;;;4.50;;
35757;SDS011;21879;50.110;18.900;2023-09-19T23:29:10;5.80;;;4.20;;
35757;SDS011;21879;50.110;18.900;2023-09-19T23:39:38;6.00;;;4.70;;
35757;SDS011;21879;50.110;18.900;2023-09-19T23:50:06;5.80;;;4.80;;
